Capitol Logistics 31


RJAA
Tokyo-Narita International Airport
Tokyo, JP
PANC
Ted Stevens Anchorage International Airport
Anchorage, US

Route Details

Aircraft Information
Primary: Boeing 777-200LRF
Backup: Boeing 767-300BDSF
Route Data
Distance: 2981nm
Sched. Duration: 6h 20m
Avg. Duration: 6h 95m (+75m)
Times Flown: 12
Recm'd Route: CUPID Y808 ALLEN Y812 SCORE R591 EHM R591 HAMND NEELL6
Planned Altitude: 33,000ft
Origin Wx: RJAA 271100Z 30003KT 270V330 9999 FEW030 04/M01 Q1021 NOSIG
Dest. Wx: PANC 271053Z 00000KT 10SM CLR M11/M12 A2953 RMK AO2 SLP004 I1000 T11111122
Notes:

Financial History
Total Freight: 1,335,243lbs
Average Load: 111,270lbs/flt
Fuel Used: 966,606lbs
Avg. Fuel Used: 80,551lbs/flt
Fuel Expense: $773,285
Avg. Fuel Expense: $64,440
Avg. Fuel Cost: $0.80/lbs
Total Gross Income: $4,159,114
Pilot Pay: $2,548
Total Expenses: $439,317
Total Revenue: $2,925,956
Average Revenue: $346,592.86